Honolulu, Hawaii
Current Conditions -  °F | °C
As of 7:53 AM on Friday 24 Oct 2014 (Local Time) from PHNL Reporting Station
Scattered Clouds Scattered Clouds  
Wind Chill: 80°   Ceiling: Unl
Heat Index: 84°   Visibility: 10mi
Dew Point: 71°   Wind: 8mph
Humidity: 74%   Direction: 60°ENE
Pressure: 30.03"   Gusts: NA
Location:  21.3°N, 157.85°W
Report Text: PHNL 241753Z 06007KT 10SM FEW025 SCT044 SCT065 27/22 A3003 RMK AO2 SLP169 VCSH NE-E T02670217 10267 20233 53016
Loading
Personal Weather Stations






























Interactive Weather Map New forecast layout! Learn more

10-Day Weather Forecast

Advertisements
Track Severe Weather on mobile